sensor_id;sensor_type;location;lat;lon;timestamp;P1;durP1;ratioP1;P2;durP2;ratioP2
48161;SDS011;33950;48.154;16.316;2022-11-06T00:02:42;13.68;;;6.10;;
48161;SDS011;33950;48.154;16.316;2022-11-06T00:05:29;9.93;;;5.38;;
48161;SDS011;33950;48.154;16.316;2022-11-06T00:08:35;9.10;;;4.90;;
48161;SDS011;33950;48.154;16.316;2022-11-06T00:11:22;14.77;;;6.20;;
48161;SDS011;33950;48.154;16.316;2022-11-06T00:14:08;12.95;;;6.03;;
48161;SDS011;33950;48.154;16.316;2022-11-06T00:16:56;14.50;;;6.20;;
48161;SDS011;33950;48.154;16.316;2022-11-06T00:19:42;12.05;;;5.35;;
48161;SDS011;33950;48.154;16.316;2022-11-06T00:22:31;11.35;;;5.57;;
48161;SDS011;33950;48.154;16.316;2022-11-06T00:25:17;9.38;;;5.22;;
48161;SDS011;33950;48.154;16.316;2022-11-06T00:28:03;10.57;;;5.20;;
48161;SDS011;33950;48.154;16.316;2022-11-06T00:30:50;18.25;;;5.88;;
48161;SDS011;33950;48.154;16.316;2022-11-06T00:33:37;10.43;;;5.75;;
48161;SDS011;33950;48.154;16.316;2022-11-06T00:36:24;13.50;;;6.03;;
48161;SDS011;33950;48.154;16.316;2022-11-06T00:39:11;14.30;;;7.05;;
48161;SDS011;33950;48.154;16.316;2022-11-06T00:41:58;16.35;;;5.93;;
48161;SDS011;33950;48.154;16.316;2022-11-06T00:44:44;12.75;;;6.28;;
48161;SDS011;33950;48.154;16.316;2022-11-06T00:47:30;15.45;;;6.05;;
48161;SDS011;33950;48.154;16.316;2022-11-06T00:50:17;13.18;;;6.13;;
48161;SDS011;33950;48.154;16.316;2022-11-06T00:53:03;19.45;;;7.10;;
48161;SDS011;33950;48.154;16.316;2022-11-06T00:55:49;12.60;;;6.57;;
48161;SDS011;33950;48.154;16.316;2022-11-06T00:58:35;18.17;;;6.97;;
48161;SDS011;33950;48.154;16.316;2022-11-06T01:01:22;16.40;;;6.72;;
48161;SDS011;33950;48.154;16.316;2022-11-06T01:04:10;13.43;;;7.28;;
48161;SDS011;33950;48.154;16.316;2022-11-06T01:06:59;20.90;;;6.72;;
48161;SDS011;33950;48.154;16.316;2022-11-06T01:09:45;14.75;;;7.20;;
48161;SDS011;33950;48.154;16.316;2022-11-06T01:12:31;15.68;;;6.93;;
48161;SDS011;33950;48.154;16.316;2022-11-06T01:15:18;19.15;;;7.85;;
48161;SDS011;33950;48.154;16.316;2022-11-06T01:18:04;15.80;;;8.18;;
48161;SDS011;33950;48.154;16.316;2022-11-06T01:20:50;15.20;;;8.48;;
48161;SDS011;33950;48.154;16.316;2022-11-06T01:23:37;16.23;;;8.45;;
48161;SDS011;33950;48.154;16.316;2022-11-06T01:26:24;15.88;;;8.35;;
48161;SDS011;33950;48.154;16.316;2022-11-06T01:29:12;14.25;;;7.68;;
48161;SDS011;33950;48.154;16.316;2022-11-06T01:31:59;14.38;;;7.63;;
48161;SDS011;33950;48.154;16.316;2022-11-06T01:34:47;15.30;;;8.02;;
48161;SDS011;33950;48.154;16.316;2022-11-06T01:37:34;18.63;;;7.97;;
48161;SDS011;33950;48.154;16.316;2022-11-06T01:40:21;15.70;;;7.97;;
48161;SDS011;33950;48.154;16.316;2022-11-06T01:43:10;20.55;;;8.32;;
48161;SDS011;33950;48.154;16.316;2022-11-06T01:46:00;19.90;;;8.65;;
48161;SDS011;33950;48.154;16.316;2022-11-06T01:48:48;15.57;;;8.52;;
48161;SDS011;33950;48.154;16.316;2022-11-06T01:51:36;16.27;;;8.52;;
48161;SDS011;33950;48.154;16.316;2022-11-06T01:54:25;16.17;;;8.73;;
48161;SDS011;33950;48.154;16.316;2022-11-06T01:57:15;25.88;;;10.10;;
48161;SDS011;33950;48.154;16.316;2022-11-06T02:00:02;16.17;;;9.40;;
48161;SDS011;33950;48.154;16.316;2022-11-06T02:02:49;15.68;;;9.35;;
48161;SDS011;33950;48.154;16.316;2022-11-06T02:05:35;16.38;;;9.50;;
48161;SDS011;33950;48.154;16.316;2022-11-06T02:08:21;20.00;;;10.32;;
48161;SDS011;33950;48.154;16.316;2022-11-06T02:11:08;23.77;;;9.75;;
48161;SDS011;33950;48.154;16.316;2022-11-06T02:14:00;20.50;;;9.70;;
48161;SDS011;33950;48.154;16.316;2022-11-06T02:16:58;17.90;;;9.77;;
48161;SDS011;33950;48.154;16.316;2022-11-06T02:19:52;22.60;;;10.10;;
48161;SDS011;33950;48.154;16.316;2022-11-06T02:22:59;21.13;;;11.15;;
48161;SDS011;33950;48.154;16.316;2022-11-06T02:25:58;21.77;;;10.98;;
48161;SDS011;33950;48.154;16.316;2022-11-06T02:28:53;19.25;;;10.45;;
48161;SDS011;33950;48.154;16.316;2022-11-06T02:31:45;20.05;;;10.73;;
48161;SDS011;33950;48.154;16.316;2022-11-06T02:34:35;25.55;;;11.27;;
48161;SDS011;33950;48.154;16.316;2022-11-06T02:37:25;22.05;;;11.63;;
48161;SDS011;33950;48.154;16.316;2022-11-06T02:40:13;27.92;;;11.85;;
48161;SDS011;33950;48.154;16.316;2022-11-06T02:43:02;23.08;;;12.35;;
48161;SDS011;33950;48.154;16.316;2022-11-06T02:45:54;20.00;;;11.90;;
48161;SDS011;33950;48.154;16.316;2022-11-06T02:48:44;22.95;;;12.05;;
48161;SDS011;33950;48.154;16.316;2022-11-06T02:51:36;20.60;;;11.93;;
48161;SDS011;33950;48.154;16.316;2022-11-06T02:54:26;24.10;;;11.82;;
48161;SDS011;33950;48.154;16.316;2022-11-06T02:57:16;18.92;;;10.93;;
48161;SDS011;33950;48.154;16.316;2022-11-06T03:00:05;20.55;;;10.65;;
48161;SDS011;33950;48.154;16.316;2022-11-06T03:02:56;28.27;;;12.15;;
48161;SDS011;33950;48.154;16.316;2022-11-06T03:05:46;25.60;;;11.45;;
48161;SDS011;33950;48.154;16.316;2022-11-06T03:08:38;22.75;;;11.60;;
48161;SDS011;33950;48.154;16.316;2022-11-06T03:11:28;25.55;;;11.95;;
48161;SDS011;33950;48.154;16.316;2022-11-06T03:14:17;17.17;;;10.75;;
48161;SDS011;33950;48.154;16.316;2022-11-06T03:17:12;24.27;;;12.23;;
48161;SDS011;33950;48.154;16.316;2022-11-06T03:20:05;27.00;;;11.52;;
48161;SDS011;33950;48.154;16.316;2022-11-06T03:23:02;20.85;;;12.02;;
48161;SDS011;33950;48.154;16.316;2022-11-06T03:25:55;23.98;;;12.65;;
48161;SDS011;33950;48.154;16.316;2022-11-06T03:28:52;24.05;;;12.45;;
48161;SDS011;33950;48.154;16.316;2022-11-06T03:31:45;28.35;;;12.88;;
48161;SDS011;33950;48.154;16.316;2022-11-06T03:34:36;20.98;;;12.43;;
48161;SDS011;33950;48.154;16.316;2022-11-06T03:37:28;22.77;;;12.18;;
48161;SDS011;33950;48.154;16.316;2022-11-06T03:43:05;27.35;;;13.05;;
48161;SDS011;33950;48.154;16.316;2022-11-06T03:45:54;25.38;;;14.27;;
48161;SDS011;33950;48.154;16.316;2022-11-06T03:48:43;27.05;;;14.35;;
48161;SDS011;33950;48.154;16.316;2022-11-06T03:51:32;26.25;;;14.65;;
48161;SDS011;33950;48.154;16.316;2022-11-06T03:54:25;26.85;;;15.18;;
48161;SDS011;33950;48.154;16.316;2022-11-06T03:57:14;30.52;;;14.70;;
48161;SDS011;33950;48.154;16.316;2022-11-06T04:00:07;34.50;;;15.55;;
48161;SDS011;33950;48.154;16.316;2022-11-06T04:02:56;33.97;;;15.30;;
48161;SDS011;33950;48.154;16.316;2022-11-06T04:05:52;29.60;;;16.27;;
48161;SDS011;33950;48.154;16.316;2022-11-06T04:08:40;34.28;;;17.70;;
48161;SDS011;33950;48.154;16.316;2022-11-06T04:11:47;32.80;;;16.25;;
48161;SDS011;33950;48.154;16.316;2022-11-06T04:14:53;44.22;;;16.80;;
48161;SDS011;33950;48.154;16.316;2022-11-06T04:17:42;33.58;;;16.95;;
48161;SDS011;33950;48.154;16.316;2022-11-06T04:20:31;35.30;;;17.75;;
48161;SDS011;33950;48.154;16.316;2022-11-06T04:23:43;32.47;;;16.05;;
48161;SDS011;33950;48.154;16.316;2022-11-06T04:27:04;36.78;;;17.90;;
48161;SDS011;33950;48.154;16.316;2022-11-06T04:30:06;38.13;;;18.05;;
48161;SDS011;33950;48.154;16.316;2022-11-06T04:32:57;33.25;;;18.58;;
48161;SDS011;33950;48.154;16.316;2022-11-06T04:35:52;34.88;;;18.35;;
48161;SDS011;33950;48.154;16.316;2022-11-06T04:38:48;31.75;;;17.08;;
48161;SDS011;33950;48.154;16.316;2022-11-06T04:41:44;39.45;;;19.08;;
48161;SDS011;33950;48.154;16.316;2022-11-06T04:44:37;33.38;;;18.55;;
48161;SDS011;33950;48.154;16.316;2022-11-06T04:47:26;36.47;;;18.30;;
48161;SDS011;33950;48.154;16.316;2022-11-06T04:50:13;43.40;;;19.40;;
48161;SDS011;33950;48.154;16.316;2022-11-06T04:53:01;35.42;;;18.73;;
48161;SDS011;33950;48.154;16.316;2022-11-06T04:55:50;43.88;;;21.65;;
48161;SDS011;33950;48.154;16.316;2022-11-06T04:58:38;38.28;;;19.20;;
48161;SDS011;33950;48.154;16.316;2022-11-06T05:01:25;36.08;;;20.33;;
48161;SDS011;33950;48.154;16.316;2022-11-06T05:04:11;36.42;;;19.27;;
48161;SDS011;33950;48.154;16.316;2022-11-06T05:06:58;36.30;;;19.48;;
48161;SDS011;33950;48.154;16.316;2022-11-06T05:09:44;40.05;;;20.02;;
48161;SDS011;33950;48.154;16.316;2022-11-06T05:12:30;39.75;;;19.90;;
48161;SDS011;33950;48.154;16.316;2022-11-06T05:15:16;35.97;;;18.90;;
48161;SDS011;33950;48.154;16.316;2022-11-06T05:18:04;40.30;;;19.38;;
48161;SDS011;33950;48.154;16.316;2022-11-06T05:20:51;40.28;;;20.98;;
48161;SDS011;33950;48.154;16.316;2022-11-06T05:23:57;36.40;;;20.38;;
48161;SDS011;33950;48.154;16.316;2022-11-06T05:26:43;35.15;;;19.05;;
48161;SDS011;33950;48.154;16.316;2022-11-06T05:29:29;37.78;;;18.45;;
48161;SDS011;33950;48.154;16.316;2022-11-06T05:32:15;38.17;;;20.10;;
48161;SDS011;33950;48.154;16.316;2022-11-06T05:35:03;43.38;;;19.27;;
48161;SDS011;33950;48.154;16.316;2022-11-06T05:37:50;40.75;;;19.63;;
48161;SDS011;33950;48.154;16.316;2022-11-06T05:40:42;41.22;;;20.52;;
48161;SDS011;33950;48.154;16.316;2022-11-06T05:43:28;37.75;;;20.58;;
48161;SDS011;33950;48.154;16.316;2022-11-06T05:46:14;43.67;;;21.23;;
48161;SDS011;33950;48.154;16.316;2022-11-06T05:49:00;40.58;;;20.38;;
48161;SDS011;33950;48.154;16.316;2022-11-06T05:51:48;39.80;;;20.10;;
48161;SDS011;33950;48.154;16.316;2022-11-06T05:54:34;40.92;;;20.63;;
48161;SDS011;33950;48.154;16.316;2022-11-06T05:57:20;40.70;;;21.10;;
48161;SDS011;33950;48.154;16.316;2022-11-06T06:00:07;39.65;;;20.63;;
48161;SDS011;33950;48.154;16.316;2022-11-06T06:02:54;41.22;;;19.83;;
48161;SDS011;33950;48.154;16.316;2022-11-06T06:05:40;46.05;;;21.33;;
48161;SDS011;33950;48.154;16.316;2022-11-06T06:08:28;44.17;;;21.55;;
48161;SDS011;33950;48.154;16.316;2022-11-06T06:11:14;38.80;;;19.42;;
48161;SDS011;33950;48.154;16.316;2022-11-06T06:14:00;40.95;;;20.88;;
48161;SDS011;33950;48.154;16.316;2022-11-06T06:16:46;42.17;;;21.48;;
48161;SDS011;33950;48.154;16.316;2022-11-06T06:19:33;44.05;;;21.13;;
48161;SDS011;33950;48.154;16.316;2022-11-06T06:22:19;38.17;;;20.13;;
48161;SDS011;33950;48.154;16.316;2022-11-06T06:25:07;46.47;;;19.20;;
48161;SDS011;33950;48.154;16.316;2022-11-06T06:27:53;41.53;;;19.00;;
48161;SDS011;33950;48.154;16.316;2022-11-06T06:30:40;39.58;;;20.42;;
48161;SDS011;33950;48.154;16.316;2022-11-06T06:33:26;41.00;;;20.08;;
48161;SDS011;33950;48.154;16.316;2022-11-06T06:36:12;43.47;;;20.23;;
48161;SDS011;33950;48.154;16.316;2022-11-06T06:38:58;43.70;;;22.58;;
48161;SDS011;33950;48.154;16.316;2022-11-06T06:41:45;43.72;;;22.85;;
48161;SDS011;33950;48.154;16.316;2022-11-06T06:44:32;44.75;;;20.70;;
48161;SDS011;33950;48.154;16.316;2022-11-06T06:47:18;41.72;;;20.10;;
48161;SDS011;33950;48.154;16.316;2022-11-06T06:50:04;40.00;;;20.08;;
48161;SDS011;33950;48.154;16.316;2022-11-06T06:52:53;33.05;;;19.02;;
48161;SDS011;33950;48.154;16.316;2022-11-06T06:55:40;35.58;;;18.15;;
48161;SDS011;33950;48.154;16.316;2022-11-06T06:58:27;31.25;;;17.80;;
48161;SDS011;33950;48.154;16.316;2022-11-06T07:01:14;37.38;;;17.95;;
48161;SDS011;33950;48.154;16.316;2022-11-06T07:04:00;36.70;;;17.88;;
48161;SDS011;33950;48.154;16.316;2022-11-06T07:06:46;36.05;;;18.23;;
48161;SDS011;33950;48.154;16.316;2022-11-06T07:09:32;34.38;;;17.45;;
48161;SDS011;33950;48.154;16.316;2022-11-06T07:12:18;29.08;;;16.30;;
48161;SDS011;33950;48.154;16.316;2022-11-06T07:15:07;33.65;;;15.88;;
48161;SDS011;33950;48.154;16.316;2022-11-06T07:17:54;27.35;;;15.00;;
48161;SDS011;33950;48.154;16.316;2022-11-06T07:20:40;23.35;;;12.52;;
48161;SDS011;33950;48.154;16.316;2022-11-06T07:23:26;25.48;;;13.15;;
48161;SDS011;33950;48.154;16.316;2022-11-06T07:26:12;23.77;;;11.82;;
48161;SDS011;33950;48.154;16.316;2022-11-06T07:28:58;22.20;;;11.90;;
48161;SDS011;33950;48.154;16.316;2022-11-06T07:31:46;26.77;;;11.73;;
48161;SDS011;33950;48.154;16.316;2022-11-06T07:34:32;25.23;;;11.88;;
48161;SDS011;33950;48.154;16.316;2022-11-06T07:37:18;25.70;;;11.85;;
48161;SDS011;33950;48.154;16.316;2022-11-06T07:40:05;18.95;;;9.60;;
48161;SDS011;33950;48.154;16.316;2022-11-06T07:42:53;20.45;;;10.18;;
48161;SDS011;33950;48.154;16.316;2022-11-06T07:45:39;23.95;;;10.32;;
48161;SDS011;33950;48.154;16.316;2022-11-06T07:48:27;17.65;;;9.45;;
48161;SDS011;33950;48.154;16.316;2022-11-06T07:51:14;21.90;;;10.05;;
48161;SDS011;33950;48.154;16.316;2022-11-06T07:54:00;20.48;;;9.43;;
48161;SDS011;33950;48.154;16.316;2022-11-06T07:56:46;19.23;;;8.88;;
48161;SDS011;33950;48.154;16.316;2022-11-06T07:59:32;15.27;;;8.20;;
48161;SDS011;33950;48.154;16.316;2022-11-06T08:02:18;16.73;;;9.10;;
48161;SDS011;33950;48.154;16.316;2022-11-06T08:05:06;16.90;;;8.18;;
48161;SDS011;33950;48.154;16.316;2022-11-06T08:07:54;15.43;;;8.02;;
48161;SDS011;33950;48.154;16.316;2022-11-06T08:10:42;12.75;;;7.10;;
48161;SDS011;33950;48.154;16.316;2022-11-06T08:13:28;16.85;;;7.45;;
48161;SDS011;33950;48.154;16.316;2022-11-06T08:16:14;20.48;;;7.40;;
48161;SDS011;33950;48.154;16.316;2022-11-06T08:19:01;23.38;;;6.82;;
48161;SDS011;33950;48.154;16.316;2022-11-06T08:21:48;13.95;;;7.63;;
48161;SDS011;33950;48.154;16.316;2022-11-06T08:24:34;12.10;;;6.55;;
48161;SDS011;33950;48.154;16.316;2022-11-06T08:27:20;21.45;;;6.82;;
48161;SDS011;33950;48.154;16.316;2022-11-06T08:30:07;12.77;;;6.68;;
48161;SDS011;33950;48.154;16.316;2022-11-06T08:32:54;17.58;;;6.55;;
48161;SDS011;33950;48.154;16.316;2022-11-06T08:35:44;9.90;;;6.22;;
48161;SDS011;33950;48.154;16.316;2022-11-06T08:38:31;12.80;;;5.80;;
48161;SDS011;33950;48.154;16.316;2022-11-06T08:41:18;19.00;;;7.30;;
48161;SDS011;33950;48.154;16.316;2022-11-06T08:44:04;23.73;;;6.50;;
48161;SDS011;33950;48.154;16.316;2022-11-06T08:46:50;15.68;;;6.45;;
48161;SDS011;33950;48.154;16.316;2022-11-06T08:49:36;18.10;;;5.95;;
48161;SDS011;33950;48.154;16.316;2022-11-06T08:52:22;14.93;;;5.63;;
48161;SDS011;33950;48.154;16.316;2022-11-06T08:55:10;14.93;;;6.03;;
48161;SDS011;33950;48.154;16.316;2022-11-06T08:57:56;21.65;;;6.03;;
48161;SDS011;33950;48.154;16.316;2022-11-06T09:00:42;14.45;;;5.82;;
48161;SDS011;33950;48.154;16.316;2022-11-06T09:03:28;19.33;;;5.72;;
48161;SDS011;33950;48.154;16.316;2022-11-06T09:06:14;12.95;;;4.80;;
48161;SDS011;33950;48.154;16.316;2022-11-06T09:09:00;14.80;;;6.35;;
48161;SDS011;33950;48.154;16.316;2022-11-06T09:11:48;10.55;;;6.07;;
48161;SDS011;33950;48.154;16.316;2022-11-06T09:14:34;11.40;;;5.50;;
48161;SDS011;33950;48.154;16.316;2022-11-06T09:17:20;15.50;;;5.93;;
48161;SDS011;33950;48.154;16.316;2022-11-06T09:20:08;10.77;;;6.13;;
48161;SDS011;33950;48.154;16.316;2022-11-06T09:22:58;13.38;;;5.60;;
48161;SDS011;33950;48.154;16.316;2022-11-06T09:25:46;15.63;;;5.83;;
48161;SDS011;33950;48.154;16.316;2022-11-06T09:28:33;10.25;;;6.20;;
48161;SDS011;33950;48.154;16.316;2022-11-06T09:31:20;17.70;;;6.18;;
48161;SDS011;33950;48.154;16.316;2022-11-06T09:34:06;15.18;;;6.25;;
48161;SDS011;33950;48.154;16.316;2022-11-06T09:36:52;15.20;;;5.80;;
48161;SDS011;33950;48.154;16.316;2022-11-06T09:39:38;11.05;;;4.28;;
48161;SDS011;33950;48.154;16.316;2022-11-06T09:42:26;8.35;;;4.40;;
48161;SDS011;33950;48.154;16.316;2022-11-06T09:45:22;12.57;;;5.00;;
48161;SDS011;33950;48.154;16.316;2022-11-06T09:48:12;11.88;;;4.43;;
48161;SDS011;33950;48.154;16.316;2022-11-06T09:51:06;12.70;;;3.95;;
48161;SDS011;33950;48.154;16.316;2022-11-06T09:54:02;11.35;;;4.47;;
48161;SDS011;33950;48.154;16.316;2022-11-06T09:56:54;7.30;;;3.22;;
48161;SDS011;33950;48.154;16.316;2022-11-06T09:59:45;11.32;;;3.83;;
48161;SDS011;33950;48.154;16.316;2022-11-06T10:02:35;7.25;;;3.30;;
48161;SDS011;33950;48.154;16.316;2022-11-06T10:05:27;6.03;;;3.67;;
48161;SDS011;33950;48.154;16.316;2022-11-06T10:08:16;7.70;;;3.17;;
48161;SDS011;33950;48.154;16.316;2022-11-06T10:11:10;12.38;;;3.30;;
48161;SDS011;33950;48.154;16.316;2022-11-06T10:14:14;14.82;;;4.13;;
48161;SDS011;33950;48.154;16.316;2022-11-06T10:17:16;9.80;;;3.58;;
48161;SDS011;33950;48.154;16.316;2022-11-06T10:20:16;9.07;;;3.40;;
48161;SDS011;33950;48.154;16.316;2022-11-06T10:23:04;6.45;;;3.45;;
48161;SDS011;33950;48.154;16.316;2022-11-06T10:26:03;8.18;;;2.70;;
48161;SDS011;33950;48.154;16.316;2022-11-06T10:31:51;7.25;;;2.40;;
48161;SDS011;33950;48.154;16.316;2022-11-06T10:34:48;10.13;;;3.10;;
48161;SDS011;33950;48.154;16.316;2022-11-06T10:37:41;6.28;;;2.45;;
48161;SDS011;33950;48.154;16.316;2022-11-06T10:40:32;14.35;;;3.10;;
48161;SDS011;33950;48.154;16.316;2022-11-06T10:43:22;7.72;;;3.05;;
48161;SDS011;33950;48.154;16.316;2022-11-06T10:46:15;12.13;;;3.35;;
48161;SDS011;33950;48.154;16.316;2022-11-06T10:49:10;10.27;;;2.90;;
48161;SDS011;33950;48.154;16.316;2022-11-06T10:52:04;5.32;;;2.70;;
48161;SDS011;33950;48.154;16.316;2022-11-06T10:55:17;9.05;;;2.35;;
48161;SDS011;33950;48.154;16.316;2022-11-06T10:58:35;6.00;;;2.15;;
48161;SDS011;33950;48.154;16.316;2022-11-06T11:01:21;7.25;;;2.72;;
48161;SDS011;33950;48.154;16.316;2022-11-06T11:04:08;5.97;;;2.58;;
48161;SDS011;33950;48.154;16.316;2022-11-06T11:06:54;5.00;;;2.72;;
48161;SDS011;33950;48.154;16.316;2022-11-06T11:09:40;6.22;;;2.05;;
48161;SDS011;33950;48.154;16.316;2022-11-06T11:12:28;6.88;;;2.33;;
48161;SDS011;33950;48.154;16.316;2022-11-06T11:15:17;10.43;;;2.53;;
48161;SDS011;33950;48.154;16.316;2022-11-06T11:18:06;12.43;;;1.83;;
48161;SDS011;33950;48.154;16.316;2022-11-06T11:21:03;4.68;;;1.75;;
48161;SDS011;33950;48.154;16.316;2022-11-06T11:26:53;4.72;;;1.70;;
48161;SDS011;33950;48.154;16.316;2022-11-06T11:29:43;13.20;;;2.20;;
48161;SDS011;33950;48.154;16.316;2022-11-06T11:32:32;7.88;;;1.98;;
48161;SDS011;33950;48.154;16.316;2022-11-06T11:35:19;9.85;;;2.90;;
48161;SDS011;33950;48.154;16.316;2022-11-06T11:38:09;7.28;;;4.00;;
48161;SDS011;33950;48.154;16.316;2022-11-06T11:41:04;10.00;;;2.70;;
48161;SDS011;33950;48.154;16.316;2022-11-06T11:43:54;8.20;;;2.97;;
48161;SDS011;33950;48.154;16.316;2022-11-06T11:46:47;7.30;;;2.85;;
48161;SDS011;33950;48.154;16.316;2022-11-06T11:49:35;7.85;;;1.55;;
48161;SDS011;33950;48.154;16.316;2022-11-06T11:52:21;9.55;;;2.80;;
48161;SDS011;33950;48.154;16.316;2022-11-06T11:55:12;5.13;;;2.13;;
48161;SDS011;33950;48.154;16.316;2022-11-06T11:58:00;16.52;;;4.53;;
48161;SDS011;33950;48.154;16.316;2022-11-06T12:00:50;6.35;;;3.33;;
48161;SDS011;33950;48.154;16.316;2022-11-06T12:03:40;9.10;;;4.43;;
48161;SDS011;33950;48.154;16.316;2022-11-06T12:06:31;7.90;;;3.13;;
48161;SDS011;33950;48.154;16.316;2022-11-06T12:09:18;7.97;;;3.03;;
48161;SDS011;33950;48.154;16.316;2022-11-06T12:12:04;8.65;;;1.50;;
48161;SDS011;33950;48.154;16.316;2022-11-06T12:15:02;8.98;;;2.22;;
48161;SDS011;33950;48.154;16.316;2022-11-06T12:17:51;5.53;;;2.05;;
48161;SDS011;33950;48.154;16.316;2022-11-06T12:20:43;8.32;;;2.50;;
48161;SDS011;33950;48.154;16.316;2022-11-06T12:23:35;4.88;;;1.48;;
48161;SDS011;33950;48.154;16.316;2022-11-06T12:26:28;4.32;;;2.03;;
48161;SDS011;33950;48.154;16.316;2022-11-06T12:29:20;9.00;;;1.77;;
48161;SDS011;33950;48.154;16.316;2022-11-06T12:32:13;4.82;;;1.70;;
48161;SDS011;33950;48.154;16.316;2022-11-06T12:35:10;4.57;;;1.70;;
48161;SDS011;33950;48.154;16.316;2022-11-06T12:38:09;5.38;;;1.60;;
48161;SDS011;33950;48.154;16.316;2022-11-06T12:41:00;4.82;;;1.70;;
48161;SDS011;33950;48.154;16.316;2022-11-06T12:43:50;11.30;;;2.35;;
48161;SDS011;33950;48.154;16.316;2022-11-06T12:46:38;8.23;;;2.92;;
48161;SDS011;33950;48.154;16.316;2022-11-06T12:49:51;6.38;;;1.92;;
48161;SDS011;33950;48.154;16.316;2022-11-06T12:52:55;4.93;;;1.98;;
48161;SDS011;33950;48.154;16.316;2022-11-06T12:55:51;6.63;;;1.70;;
48161;SDS011;33950;48.154;16.316;2022-11-06T12:58:55;3.70;;;1.00;;
48161;SDS011;33950;48.154;16.316;2022-11-06T13:01:52;3.03;;;1.40;;
48161;SDS011;33950;48.154;16.316;2022-11-06T13:04:49;6.68;;;1.73;;
48161;SDS011;33950;48.154;16.316;2022-11-06T13:07:44;3.75;;;1.40;;
48161;SDS011;33950;48.154;16.316;2022-11-06T13:13:48;4.40;;;1.63;;
48161;SDS011;33950;48.154;16.316;2022-11-06T13:16:46;7.40;;;1.88;;
48161;SDS011;33950;48.154;16.316;2022-11-06T13:19:40;5.63;;;1.15;;
48161;SDS011;33950;48.154;16.316;2022-11-06T13:22:35;3.97;;;1.52;;
48161;SDS011;33950;48.154;16.316;2022-11-06T13:25:26;2.88;;;1.10;;
48161;SDS011;33950;48.154;16.316;2022-11-06T13:28:25;4.90;;;1.70;;
48161;SDS011;33950;48.154;16.316;2022-11-06T13:31:15;12.10;;;3.00;;
48161;SDS011;33950;48.154;16.316;2022-11-06T13:34:05;7.97;;;2.00;;
48161;SDS011;33950;48.154;16.316;2022-11-06T13:36:54;6.85;;;1.88;;
48161;SDS011;33950;48.154;16.316;2022-11-06T13:39:43;6.82;;;1.83;;
48161;SDS011;33950;48.154;16.316;2022-11-06T13:42:35;6.80;;;2.47;;
48161;SDS011;33950;48.154;16.316;2022-11-06T13:45:25;3.35;;;1.60;;
48161;SDS011;33950;48.154;16.316;2022-11-06T13:48:22;4.25;;;1.70;;
48161;SDS011;33950;48.154;16.316;2022-11-06T13:51:16;8.85;;;2.40;;
48161;SDS011;33950;48.154;16.316;2022-11-06T13:54:09;11.02;;;2.30;;
48161;SDS011;33950;48.154;16.316;2022-11-06T14:00:20;5.57;;;1.65;;
48161;SDS011;33950;48.154;16.316;2022-11-06T14:03:23;8.40;;;2.25;;
48161;SDS011;33950;48.154;16.316;2022-11-06T14:06:21;6.80;;;2.60;;
48161;SDS011;33950;48.154;16.316;2022-11-06T14:09:10;8.98;;;2.45;;
48161;SDS011;33950;48.154;16.316;2022-11-06T14:12:01;4.93;;;2.53;;
48161;SDS011;33950;48.154;16.316;2022-11-06T14:14:50;6.82;;;2.90;;
48161;SDS011;33950;48.154;16.316;2022-11-06T14:17:58;7.65;;;2.47;;
48161;SDS011;33950;48.154;16.316;2022-11-06T14:20:46;5.47;;;2.25;;
48161;SDS011;33950;48.154;16.316;2022-11-06T14:23:45;4.65;;;2.33;;
48161;SDS011;33950;48.154;16.316;2022-11-06T14:26:41;3.53;;;2.20;;
48161;SDS011;33950;48.154;16.316;2022-11-06T14:29:42;9.45;;;3.40;;
48161;SDS011;33950;48.154;16.316;2022-11-06T14:32:43;5.65;;;2.92;;
48161;SDS011;33950;48.154;16.316;2022-11-06T14:38:36;8.73;;;2.90;;
48161;SDS011;33950;48.154;16.316;2022-11-06T14:44:40;12.50;;;3.60;;
48161;SDS011;33950;48.154;16.316;2022-11-06T14:47:33;9.57;;;3.10;;
48161;SDS011;33950;48.154;16.316;2022-11-06T14:53:18;6.38;;;3.10;;
48161;SDS011;33950;48.154;16.316;2022-11-06T14:56:07;8.65;;;3.15;;
48161;SDS011;33950;48.154;16.316;2022-11-06T14:58:55;11.93;;;3.10;;
48161;SDS011;33950;48.154;16.316;2022-11-06T15:01:43;8.70;;;2.45;;
48161;SDS011;33950;48.154;16.316;2022-11-06T15:04:41;13.45;;;3.03;;
48161;SDS011;33950;48.154;16.316;2022-11-06T15:07:32;7.75;;;3.35;;
48161;SDS011;33950;48.154;16.316;2022-11-06T15:13:32;14.93;;;4.32;;
48161;SDS011;33950;48.154;16.316;2022-11-06T15:16:18;12.48;;;4.35;;
48161;SDS011;33950;48.154;16.316;2022-11-06T15:19:06;10.57;;;3.78;;
48161;SDS011;33950;48.154;16.316;2022-11-06T15:21:59;12.00;;;3.78;;
48161;SDS011;33950;48.154;16.316;2022-11-06T15:24:52;8.93;;;3.85;;
48161;SDS011;33950;48.154;16.316;2022-11-06T15:27:44;6.85;;;3.65;;
48161;SDS011;33950;48.154;16.316;2022-11-06T15:30:40;12.32;;;3.85;;
48161;SDS011;33950;48.154;16.316;2022-11-06T15:33:32;10.68;;;4.03;;
48161;SDS011;33950;48.154;16.316;2022-11-06T15:36:21;12.35;;;4.50;;
48161;SDS011;33950;48.154;16.316;2022-11-06T15:39:20;11.77;;;4.72;;
48161;SDS011;33950;48.154;16.316;2022-11-06T15:42:08;9.77;;;3.17;;
48161;SDS011;33950;48.154;16.316;2022-11-06T15:45:08;21.95;;;10.68;;
48161;SDS011;33950;48.154;16.316;2022-11-06T15:48:04;9.25;;;3.67;;
48161;SDS011;33950;48.154;16.316;2022-11-06T15:51:18;8.25;;;3.63;;
48161;SDS011;33950;48.154;16.316;2022-11-06T15:54:09;12.57;;;3.90;;
48161;SDS011;33950;48.154;16.316;2022-11-06T15:56:57;8.70;;;4.07;;
48161;SDS011;33950;48.154;16.316;2022-11-06T15:59:44;9.07;;;4.30;;
48161;SDS011;33950;48.154;16.316;2022-11-06T16:02:32;19.40;;;5.43;;
48161;SDS011;33950;48.154;16.316;2022-11-06T16:05:18;14.50;;;6.10;;
48161;SDS011;33950;48.154;16.316;2022-11-06T16:08:06;16.55;;;7.22;;
48161;SDS011;33950;48.154;16.316;2022-11-06T16:10:55;16.42;;;7.78;;
48161;SDS011;33950;48.154;16.316;2022-11-06T16:13:43;22.98;;;8.55;;
48161;SDS011;33950;48.154;16.316;2022-11-06T16:16:34;21.90;;;8.15;;
48161;SDS011;33950;48.154;16.316;2022-11-06T16:19:25;19.98;;;8.05;;
48161;SDS011;33950;48.154;16.316;2022-11-06T16:22:15;21.45;;;9.15;;
48161;SDS011;33950;48.154;16.316;2022-11-06T16:25:04;16.23;;;8.13;;
48161;SDS011;33950;48.154;16.316;2022-11-06T16:27:51;19.40;;;7.85;;
48161;SDS011;33950;48.154;16.316;2022-11-06T16:30:38;20.73;;;7.93;;
48161;SDS011;33950;48.154;16.316;2022-11-06T16:33:24;18.50;;;7.55;;
48161;SDS011;33950;48.154;16.316;2022-11-06T16:36:12;17.38;;;7.82;;
48161;SDS011;33950;48.154;16.316;2022-11-06T16:39:09;16.33;;;6.65;;
48161;SDS011;33950;48.154;16.316;2022-11-06T16:42:26;19.15;;;6.93;;
48161;SDS011;33950;48.154;16.316;2022-11-06T16:45:15;16.50;;;6.25;;
48161;SDS011;33950;48.154;16.316;2022-11-06T16:48:23;15.63;;;6.25;;
48161;SDS011;33950;48.154;16.316;2022-11-06T16:51:27;14.05;;;6.35;;
48161;SDS011;33950;48.154;16.316;2022-11-06T16:54:15;17.15;;;5.70;;
48161;SDS011;33950;48.154;16.316;2022-11-06T16:57:08;14.50;;;5.45;;
48161;SDS011;33950;48.154;16.316;2022-11-06T17:00:02;17.58;;;5.20;;
48161;SDS011;33950;48.154;16.316;2022-11-06T17:03:06;18.00;;;5.07;;
48161;SDS011;33950;48.154;16.316;2022-11-06T17:06:02;13.13;;;5.63;;